sensor_id;sensor_type;location;lat;lon;timestamp;pressure;altitude;pressure_sealevel;temperature
48628;BMP280;34424;52.234;6.500;2023-07-08T00:02:44;101753.6;;;16.11
48628;BMP280;34424;52.234;6.500;2023-07-08T00:07:44;101752.1;;;16.01
48628;BMP280;34424;52.234;6.500;2023-07-08T00:12:44;101745.2;;;15.95
48628;BMP280;34424;52.234;6.500;2023-07-08T00:17:44;101739.7;;;15.9
48628;BMP280;34424;52.234;6.500;2023-07-08T00:22:44;101735.7;;;15.8
48628;BMP280;34424;52.234;6.500;2023-07-08T00:27:44;101739.3;;;15.76
48628;BMP280;34424;52.234;6.500;2023-07-08T00:32:44;101734.1;;;15.75
48628;BMP280;34424;52.234;6.500;2023-07-08T00:37:44;101732.5;;;15.67
48628;BMP280;34424;52.234;6.500;2023-07-08T00:42:44;101728.2;;;15.73
48628;BMP280;34424;52.234;6.500;2023-07-08T00:47:44;101724.2;;;15.7
48628;BMP280;34424;52.234;6.500;2023-07-08T00:52:44;101714.4;;;15.69
48628;BMP280;34424;52.234;6.500;2023-07-08T00:57:44;101719.4;;;15.62
48628;BMP280;34424;52.234;6.500;2023-07-08T01:02:45;101711.7;;;15.53
48628;BMP280;34424;52.234;6.500;2023-07-08T01:07:45;101709.2;;;15.32
48628;BMP280;34424;52.234;6.500;2023-07-08T01:12:44;101699.3;;;15.25
48628;BMP280;34424;52.234;6.500;2023-07-08T01:17:44;101696.3;;;15.3
48628;BMP280;34424;52.234;6.500;2023-07-08T01:22:44;101699.6;;;15.29
48628;BMP280;34424;52.234;6.500;2023-07-08T01:27:45;101698.5;;;15.24
48628;BMP280;34424;52.234;6.500;2023-07-08T01:32:45;101696.5;;;15.3
48628;BMP280;34424;52.234;6.500;2023-07-08T01:37:44;101693.6;;;15.19
48628;BMP280;34424;52.234;6.500;2023-07-08T01:42:44;101691.1;;;15.12
48628;BMP280;34424;52.234;6.500;2023-07-08T01:47:46;101685.1;;;15.08
48628;BMP280;34424;52.234;6.500;2023-07-08T01:52:44;101677.4;;;15
48628;BMP280;34424;52.234;6.500;2023-07-08T01:57:44;101672.9;;;14.97
48628;BMP280;34424;52.234;6.500;2023-07-08T02:02:44;101664.2;;;14.9
48628;BMP280;34424;52.234;6.500;2023-07-08T02:07:44;101660.8;;;14.84
48628;BMP280;34424;52.234;6.500;2023-07-08T02:12:44;101650;;;14.68
48628;BMP280;34424;52.234;6.500;2023-07-08T02:17:44;101645.9;;;14.68
48628;BMP280;34424;52.234;6.500;2023-07-08T02:22:44;101638;;;14.59
48628;BMP280;34424;52.234;6.500;2023-07-08T02:27:44;101631.4;;;14.51
48628;BMP280;34424;52.234;6.500;2023-07-08T02:32:44;101642.1;;;14.6
48628;BMP280;34424;52.234;6.500;2023-07-08T02:37:44;101637;;;14.55
48628;BMP280;34424;52.234;6.500;2023-07-08T02:42:44;101632.3;;;14.41
48628;BMP280;34424;52.234;6.500;2023-07-08T02:47:44;101626.6;;;14.23
48628;BMP280;34424;52.234;6.500;2023-07-08T02:52:44;101628;;;14.21
48628;BMP280;34424;52.234;6.500;2023-07-08T02:57:44;101627.6;;;14.25
48628;BMP280;34424;52.234;6.500;2023-07-08T03:02:44;101619.9;;;14.16
48628;BMP280;34424;52.234;6.500;2023-07-08T03:07:44;101616.8;;;14.13
48628;BMP280;34424;52.234;6.500;2023-07-08T03:12:44;101612;;;14.12
48628;BMP280;34424;52.234;6.500;2023-07-08T03:17:44;101611.7;;;14.19
48628;BMP280;34424;52.234;6.500;2023-07-08T03:22:44;101612.7;;;14.18
48628;BMP280;34424;52.234;6.500;2023-07-08T03:27:44;101612.3;;;14.11
48628;BMP280;34424;52.234;6.500;2023-07-08T03:32:44;101615.6;;;14.1
48628;BMP280;34424;52.234;6.500;2023-07-08T03:37:44;101613.5;;;14.14
48628;BMP280;34424;52.234;6.500;2023-07-08T03:42:44;101617.3;;;14.17
48628;BMP280;34424;52.234;6.500;2023-07-08T03:47:44;101614.4;;;14.16
48628;BMP280;34424;52.234;6.500;2023-07-08T03:52:44;101613.9;;;14.22
48628;BMP280;34424;52.234;6.500;2023-07-08T03:57:44;101615.1;;;14.25
48628;BMP280;34424;52.234;6.500;2023-07-08T04:02:44;101616.4;;;14.26
48628;BMP280;34424;52.234;6.500;2023-07-08T04:07:44;101624.1;;;14.32
48628;BMP280;34424;52.234;6.500;2023-07-08T04:12:44;101625.2;;;14.37
48628;BMP280;34424;52.234;6.500;2023-07-08T04:17:45;101629.6;;;14.44
48628;BMP280;34424;52.234;6.500;2023-07-08T04:22:44;101637.9;;;14.62
48628;BMP280;34424;52.234;6.500;2023-07-08T04:27:44;101633.3;;;14.78
48628;BMP280;34424;52.234;6.500;2023-07-08T04:32:44;101641.6;;;14.96
48628;BMP280;34424;52.234;6.500;2023-07-08T04:37:44;101643.7;;;15.14
48628;BMP280;34424;52.234;6.500;2023-07-08T04:42:44;101647.6;;;15.31
48628;BMP280;34424;52.234;6.500;2023-07-08T04:47:44;101647.6;;;15.4
48628;BMP280;34424;52.234;6.500;2023-07-08T04:52:44;101642.3;;;15.43
48628;BMP280;34424;52.234;6.500;2023-07-08T04:57:44;101641.1;;;15.41
48628;BMP280;34424;52.234;6.500;2023-07-08T05:02:44;101650.5;;;15.42
48628;BMP280;34424;52.234;6.500;2023-07-08T05:07:44;101645.8;;;15.42
48628;BMP280;34424;52.234;6.500;2023-07-08T05:12:44;101636.5;;;15.44
48628;BMP280;34424;52.234;6.500;2023-07-08T05:17:44;101635.8;;;15.44
48628;BMP280;34424;52.234;6.500;2023-07-08T05:22:44;101639.9;;;15.54
48628;BMP280;34424;52.234;6.500;2023-07-08T05:27:44;101630.7;;;15.83
48628;BMP280;34424;52.234;6.500;2023-07-08T05:32:44;101626.7;;;17.17
48628;BMP280;34424;52.234;6.500;2023-07-08T05:37:44;101628.4;;;18.57
48628;BMP280;34424;52.234;6.500;2023-07-08T05:42:44;101629;;;19.54
48628;BMP280;34424;52.234;6.500;2023-07-08T05:47:44;101625.3;;;20.42
48628;BMP280;34424;52.234;6.500;2023-07-08T05:52:44;101626.4;;;19.68
48628;BMP280;34424;52.234;6.500;2023-07-08T05:57:44;101628.2;;;20.38
48628;BMP280;34424;52.234;6.500;2023-07-08T06:02:44;101638.4;;;21.62
48628;BMP280;34424;52.234;6.500;2023-07-08T06:07:44;101632.6;;;21.87
48628;BMP280;34424;52.234;6.500;2023-07-08T06:12:44;101634.6;;;23.08
48628;BMP280;34424;52.234;6.500;2023-07-08T06:17:44;101622.1;;;24.22
48628;BMP280;34424;52.234;6.500;2023-07-08T06:22:44;101616.9;;;24.9
48628;BMP280;34424;52.234;6.500;2023-07-08T06:27:44;101617.8;;;25.19
48628;BMP280;34424;52.234;6.500;2023-07-08T06:32:44;101617.1;;;25.35
48628;BMP280;34424;52.234;6.500;2023-07-08T06:37:44;101619.5;;;26.14
48628;BMP280;34424;52.234;6.500;2023-07-08T06:42:44;101620.9;;;26.53
48628;BMP280;34424;52.234;6.500;2023-07-08T06:47:44;101628.2;;;26.93
48628;BMP280;34424;52.234;6.500;2023-07-08T06:52:44;101626.9;;;27.38
48628;BMP280;34424;52.234;6.500;2023-07-08T06:57:44;101624;;;28.53
48628;BMP280;34424;52.234;6.500;2023-07-08T07:02:44;101621.2;;;28.79
48628;BMP280;34424;52.234;6.500;2023-07-08T07:07:44;101623.7;;;29.46
48628;BMP280;34424;52.234;6.500;2023-07-08T07:12:44;101617.6;;;29.52
48628;BMP280;34424;52.234;6.500;2023-07-08T07:17:44;101614.9;;;29.92
48628;BMP280;34424;52.234;6.500;2023-07-08T07:22:44;101627.9;;;30.25
48628;BMP280;34424;52.234;6.500;2023-07-08T07:27:44;101634.9;;;30.24
48628;BMP280;34424;52.234;6.500;2023-07-08T07:32:44;101627.9;;;31.03
48628;BMP280;34424;52.234;6.500;2023-07-08T07:37:45;101627.1;;;30.39
48628;BMP280;34424;52.234;6.500;2023-07-08T07:42:45;101631.1;;;30.61
48628;BMP280;34424;52.234;6.500;2023-07-08T07:47:44;101635.7;;;31.16
48628;BMP280;34424;52.234;6.500;2023-07-08T07:52:44;101626.1;;;31.79
48628;BMP280;34424;52.234;6.500;2023-07-08T07:57:44;101621.9;;;32.69
48628;BMP280;34424;52.234;6.500;2023-07-08T08:02:44;101620.6;;;32.42
48628;BMP280;34424;52.234;6.500;2023-07-08T08:07:44;101622.1;;;32.15
48628;BMP280;34424;52.234;6.500;2023-07-08T08:12:44;101621.5;;;32.54
48628;BMP280;34424;52.234;6.500;2023-07-08T08:17:44;101621.7;;;32.93
48628;BMP280;34424;52.234;6.500;2023-07-08T08:22:45;101620.5;;;32.65
48628;BMP280;34424;52.234;6.500;2023-07-08T08:27:44;101620.8;;;33.3
48628;BMP280;34424;52.234;6.500;2023-07-08T08:32:44;101623.3;;;33.76
48628;BMP280;34424;52.234;6.500;2023-07-08T08:37:44;101623.4;;;33.78
48628;BMP280;34424;52.234;6.500;2023-07-08T08:42:46;101614.4;;;33.68
48628;BMP280;34424;52.234;6.500;2023-07-08T08:47:45;101612.3;;;34.14
48628;BMP280;34424;52.234;6.500;2023-07-08T08:52:44;101612.1;;;34.39
48628;BMP280;34424;52.234;6.500;2023-07-08T08:57:46;101603.8;;;34.51
48628;BMP280;34424;52.234;6.500;2023-07-08T09:02:46;101601.5;;;34.92
48628;BMP280;34424;52.234;6.500;2023-07-08T09:07:45;101602.9;;;35.13
48628;BMP280;34424;52.234;6.500;2023-07-08T09:12:44;101611.7;;;35.3
48628;BMP280;34424;52.234;6.500;2023-07-08T09:17:44;101613.6;;;35.83
48628;BMP280;34424;52.234;6.500;2023-07-08T09:22:45;101608.3;;;36.18
48628;BMP280;34424;52.234;6.500;2023-07-08T09:27:45;101607.4;;;36.4
48628;BMP280;34424;52.234;6.500;2023-07-08T09:32:45;101612.5;;;36.39
48628;BMP280;34424;52.234;6.500;2023-07-08T09:37:45;101620.4;;;35.71
48628;BMP280;34424;52.234;6.500;2023-07-08T09:42:46;101611.8;;;35.96
48628;BMP280;34424;52.234;6.500;2023-07-08T09:47:44;101612.7;;;35.48
48628;BMP280;34424;52.234;6.500;2023-07-08T09:52:45;101609.2;;;35.7
48628;BMP280;34424;52.234;6.500;2023-07-08T09:57:45;101609.4;;;35.39
48628;BMP280;34424;52.234;6.500;2023-07-08T10:02:45;101614.2;;;35.84
48628;BMP280;34424;52.234;6.500;2023-07-08T10:07:45;101618.9;;;35.75
48628;BMP280;34424;52.234;6.500;2023-07-08T10:12:46;101611.6;;;36.23
48628;BMP280;34424;52.234;6.500;2023-07-08T10:17:44;101616.9;;;36.89
48628;BMP280;34424;52.234;6.500;2023-07-08T10:22:46;101609.5;;;36.63
48628;BMP280;34424;52.234;6.500;2023-07-08T10:27:45;101604.3;;;36.32
48628;BMP280;34424;52.234;6.500;2023-07-08T10:32:48;101603.2;;;36.29
48628;BMP280;34424;52.234;6.500;2023-07-08T10:37:47;101604.1;;;36.89
48628;BMP280;34424;52.234;6.500;2023-07-08T10:42:52;101601.3;;;36.91
48628;BMP280;34424;52.234;6.500;2023-07-08T10:47:50;101602;;;36.85
48628;BMP280;34424;52.234;6.500;2023-07-08T10:52:48;101603.4;;;36.34
48628;BMP280;34424;52.234;6.500;2023-07-08T11:02:53;101599.9;;;37.01
48628;BMP280;34424;52.234;6.500;2023-07-08T11:07:45;101606.6;;;35.68
48628;BMP280;34424;52.234;6.500;2023-07-08T11:12:45;101600.9;;;35.98
48628;BMP280;34424;52.234;6.500;2023-07-08T11:17:47;101606.9;;;36.15
48628;BMP280;34424;52.234;6.500;2023-07-08T11:22:45;101603.4;;;35.69
48628;BMP280;34424;52.234;6.500;2023-07-08T11:27:44;101597.2;;;36.38
48628;BMP280;34424;52.234;6.500;2023-07-08T11:32:45;101589.1;;;36.03
48628;BMP280;34424;52.234;6.500;2023-07-08T11:37:44;101573.9;;;36.56
48628;BMP280;34424;52.234;6.500;2023-07-08T11:42:47;101567;;;36.62
48628;BMP280;34424;52.234;6.500;2023-07-08T11:47:45;101563.8;;;36.76
48628;BMP280;34424;52.234;6.500;2023-07-08T11:52:53;101555.8;;;37.38
48628;BMP280;34424;52.234;6.500;2023-07-08T11:57:44;101562.8;;;36.55
48628;BMP280;34424;52.234;6.500;2023-07-08T12:02:52;101557.6;;;35.78
48628;BMP280;34424;52.234;6.500;2023-07-08T12:07:45;101551.9;;;36.74
48628;BMP280;34424;52.234;6.500;2023-07-08T12:12:45;101544.8;;;36.69
48628;BMP280;34424;52.234;6.500;2023-07-08T12:17:44;101547.7;;;36.83
48628;BMP280;34424;52.234;6.500;2023-07-08T12:22:44;101551.7;;;35.38
48628;BMP280;34424;52.234;6.500;2023-07-08T12:27:45;101547.3;;;36.14
48628;BMP280;34424;52.234;6.500;2023-07-08T12:32:44;101543.9;;;36.31
48628;BMP280;34424;52.234;6.500;2023-07-08T12:37:44;101542.5;;;36.72
48628;BMP280;34424;52.234;6.500;2023-07-08T12:42:44;101547.3;;;35.92
48628;BMP280;34424;52.234;6.500;2023-07-08T12:47:45;101539.4;;;35.98
48628;BMP280;34424;52.234;6.500;2023-07-08T12:52:46;101550.7;;;36.58
48628;BMP280;34424;52.234;6.500;2023-07-08T12:57:47;101544.6;;;35.94
48628;BMP280;34424;52.234;6.500;2023-07-08T13:02:44;101539.4;;;35.57
48628;BMP280;34424;52.234;6.500;2023-07-08T13:07:45;101537.8;;;35.47
48628;BMP280;34424;52.234;6.500;2023-07-08T13:12:45;101534.2;;;36.04
48628;BMP280;34424;52.234;6.500;2023-07-08T13:17:45;101539.5;;;35.87
48628;BMP280;34424;52.234;6.500;2023-07-08T13:22:46;101536;;;35.48
48628;BMP280;34424;52.234;6.500;2023-07-08T13:27:47;101528;;;35.47
48628;BMP280;34424;52.234;6.500;2023-07-08T13:32:45;101528.7;;;35.56
48628;BMP280;34424;52.234;6.500;2023-07-08T13:37:45;101529.6;;;35.48
48628;BMP280;34424;52.234;6.500;2023-07-08T13:42:50;101535.7;;;35.02
48628;BMP280;34424;52.234;6.500;2023-07-08T13:47:45;101532.8;;;35
48628;BMP280;34424;52.234;6.500;2023-07-08T13:52:46;101529.5;;;35.23
48628;BMP280;34424;52.234;6.500;2023-07-08T13:57:45;101532.3;;;35.22
48628;BMP280;34424;52.234;6.500;2023-07-08T14:02:45;101527.6;;;35.07
48628;BMP280;34424;52.234;6.500;2023-07-08T14:07:45;101526.8;;;34.84
48628;BMP280;34424;52.234;6.500;2023-07-08T14:12:45;101526.5;;;34.54
48628;BMP280;34424;52.234;6.500;2023-07-08T14:17:45;101530.2;;;34.34
48628;BMP280;34424;52.234;6.500;2023-07-08T14:22:45;101532.7;;;34.34
48628;BMP280;34424;52.234;6.500;2023-07-08T14:27:45;101533.4;;;34.01
48628;BMP280;34424;52.234;6.500;2023-07-08T14:32:45;101532.5;;;34.17
48628;BMP280;34424;52.234;6.500;2023-07-08T14:37:45;101526.3;;;34.31
48628;BMP280;34424;52.234;6.500;2023-07-08T14:42:45;101525.2;;;34.28
48628;BMP280;34424;52.234;6.500;2023-07-08T14:47:45;101522.4;;;34.53
48628;BMP280;34424;52.234;6.500;2023-07-08T14:52:45;101526.7;;;34.71
48628;BMP280;34424;52.234;6.500;2023-07-08T14:57:46;101519.8;;;35.01
48628;BMP280;34424;52.234;6.500;2023-07-08T15:02:45;101521.3;;;35.02
48628;BMP280;34424;52.234;6.500;2023-07-08T15:07:47;101524.8;;;35.05
48628;BMP280;34424;52.234;6.500;2023-07-08T15:12:45;101523.5;;;35.47
48628;BMP280;34424;52.234;6.500;2023-07-08T15:17:45;101515.3;;;35.82
48628;BMP280;34424;52.234;6.500;2023-07-08T15:22:45;101515.3;;;36.35
48628;BMP280;34424;52.234;6.500;2023-07-08T15:27:45;101513;;;36.54
48628;BMP280;34424;52.234;6.500;2023-07-08T15:32:45;101517;;;36.63
48628;BMP280;34424;52.234;6.500;2023-07-08T15:37:46;101511.3;;;35.97
48628;BMP280;34424;52.234;6.500;2023-07-08T15:42:45;101515.3;;;35.82
48628;BMP280;34424;52.234;6.500;2023-07-08T15:47:45;101514.9;;;35.93
48628;BMP280;34424;52.234;6.500;2023-07-08T15:52:45;101514.1;;;36.01
48628;BMP280;34424;52.234;6.500;2023-07-08T15:57:48;101512.7;;;35.43
48628;BMP280;34424;52.234;6.500;2023-07-08T16:02:45;101514;;;34.83
48628;BMP280;34424;52.234;6.500;2023-07-08T16:07:45;101514.5;;;34.65
48628;BMP280;34424;52.234;6.500;2023-07-08T16:12:45;101514.6;;;34.81
48628;BMP280;34424;52.234;6.500;2023-07-08T16:17:45;101514.3;;;35.06
48628;BMP280;34424;52.234;6.500;2023-07-08T16:22:45;101511;;;36.04
48628;BMP280;34424;52.234;6.500;2023-07-08T16:27:45;101509.1;;;36.37
48628;BMP280;34424;52.234;6.500;2023-07-08T16:32:45;101501.3;;;35.85
48628;BMP280;34424;52.234;6.500;2023-07-08T16:37:45;101502.2;;;36.01
48628;BMP280;34424;52.234;6.500;2023-07-08T16:42:45;101498.7;;;35.92
48628;BMP280;34424;52.234;6.500;2023-07-08T16:47:45;101495.6;;;35.05
48628;BMP280;34424;52.234;6.500;2023-07-08T16:52:45;101491.1;;;33.92
48628;BMP280;34424;52.234;6.500;2023-07-08T16:57:45;101489.9;;;33.27
48628;BMP280;34424;52.234;6.500;2023-07-08T17:02:45;101491.8;;;32.63
48628;BMP280;34424;52.234;6.500;2023-07-08T17:07:45;101485.8;;;32.26
48628;BMP280;34424;52.234;6.500;2023-07-08T17:12:45;101489.3;;;31.88
48628;BMP280;34424;52.234;6.500;2023-07-08T17:17:46;101488.3;;;31.68
48628;BMP280;34424;52.234;6.500;2023-07-08T17:22:45;101487;;;31.48
48628;BMP280;34424;52.234;6.500;2023-07-08T17:27:45;101485.4;;;31.45
48628;BMP280;34424;52.234;6.500;2023-07-08T17:32:45;101478.7;;;31.37
48628;BMP280;34424;52.234;6.500;2023-07-08T17:37:45;101483;;;31.28
48628;BMP280;34424;52.234;6.500;2023-07-08T17:42:45;101481.3;;;31.63
48628;BMP280;34424;52.234;6.500;2023-07-08T17:47:45;101477.1;;;32.23
48628;BMP280;34424;52.234;6.500;2023-07-08T17:52:45;101480;;;32.1
48628;BMP280;34424;52.234;6.500;2023-07-08T17:57:46;101476.1;;;31.53
48628;BMP280;34424;52.234;6.500;2023-07-08T18:02:45;101480.8;;;31.02
48628;BMP280;34424;52.234;6.500;2023-07-08T18:07:45;101478.7;;;30.9
48628;BMP280;34424;52.234;6.500;2023-07-08T18:12:45;101472.6;;;30.61
48628;BMP280;34424;52.234;6.500;2023-07-08T18:17:45;101468.2;;;30.18
48628;BMP280;34424;52.234;6.500;2023-07-08T18:22:45;101470.8;;;29.73
48628;BMP280;34424;52.234;6.500;2023-07-08T18:27:45;101472.3;;;29.31
48628;BMP280;34424;52.234;6.500;2023-07-08T18:32:45;101475;;;28.93
48628;BMP280;34424;52.234;6.500;2023-07-08T18:37:45;101481.9;;;28.65
48628;BMP280;34424;52.234;6.500;2023-07-08T18:42:46;101482.1;;;28.38
48628;BMP280;34424;52.234;6.500;2023-07-08T18:47:45;101482.6;;;28.02
48628;BMP280;34424;52.234;6.500;2023-07-08T18:52:45;101494;;;27.76
48628;BMP280;34424;52.234;6.500;2023-07-08T18:57:45;101495.6;;;27.46
48628;BMP280;34424;52.234;6.500;2023-07-08T19:02:48;101502.9;;;27.17
48628;BMP280;34424;52.234;6.500;2023-07-08T19:07:45;101503.5;;;26.82
48628;BMP280;34424;52.234;6.500;2023-07-08T19:12:45;101510.9;;;26.5
48628;BMP280;34424;52.234;6.500;2023-07-08T19:17:45;101516.4;;;26.24
48628;BMP280;34424;52.234;6.500;2023-07-08T19:22:45;101518.5;;;26.06
48628;BMP280;34424;52.234;6.500;2023-07-08T19:27:45;101523.7;;;25.86
48628;BMP280;34424;52.234;6.500;2023-07-08T19:32:47;101529;;;25.66
48628;BMP280;34424;52.234;6.500;2023-07-08T19:37:45;101532;;;25.47
48628;BMP280;34424;52.234;6.500;2023-07-08T19:42:45;101536.4;;;25.27
48628;BMP280;34424;52.234;6.500;2023-07-08T19:47:45;101544.7;;;25.16
48628;BMP280;34424;52.234;6.500;2023-07-08T19:52:45;101549;;;25.09
48628;BMP280;34424;52.234;6.500;2023-07-08T19:57:46;101552.8;;;24.95
48628;BMP280;34424;52.234;6.500;2023-07-08T20:02:45;101561.9;;;24.78
48628;BMP280;34424;52.234;6.500;2023-07-08T20:07:45;101565.1;;;24.59
48628;BMP280;34424;52.234;6.500;2023-07-08T20:12:45;101569.3;;;24.49
48628;BMP280;34424;52.234;6.500;2023-07-08T20:17:45;101574.8;;;24.45
48628;BMP280;34424;52.234;6.500;2023-07-08T20:22:45;101573.8;;;24.43
48628;BMP280;34424;52.234;6.500;2023-07-08T20:27:45;101569.3;;;24.33
48628;BMP280;34424;52.234;6.500;2023-07-08T20:32:45;101567.1;;;24.2
48628;BMP280;34424;52.234;6.500;2023-07-08T20:37:45;101574.2;;;24.02
48628;BMP280;34424;52.234;6.500;2023-07-08T20:42:45;101576.3;;;23.88
48628;BMP280;34424;52.234;6.500;2023-07-08T20:47:45;101578.4;;;23.79
48628;BMP280;34424;52.234;6.500;2023-07-08T20:52:45;101578.8;;;23.74
48628;BMP280;34424;52.234;6.500;2023-07-08T20:57:45;101581.8;;;23.64
48628;BMP280;34424;52.234;6.500;2023-07-08T21:02:45;101584.8;;;23.44
48628;BMP280;34424;52.234;6.500;2023-07-08T21:07:45;101584.8;;;23.23
48628;BMP280;34424;52.234;6.500;2023-07-08T21:12:45;101581.8;;;23
48628;BMP280;34424;52.234;6.500;2023-07-08T21:17:45;101583.6;;;23
48628;BMP280;34424;52.234;6.500;2023-07-08T21:22:45;101587.2;;;22.82
48628;BMP280;34424;52.234;6.500;2023-07-08T21:27:45;101587.8;;;22.71
48628;BMP280;34424;52.234;6.500;2023-07-08T21:32:46;101587.2;;;22.52
48628;BMP280;34424;52.234;6.500;2023-07-08T21:37:47;101589.5;;;22.33
48628;BMP280;34424;52.234;6.500;2023-07-08T21:42:45;101588.5;;;22.25
48628;BMP280;34424;52.234;6.500;2023-07-08T21:47:45;101587.4;;;22.14
48628;BMP280;34424;52.234;6.500;2023-07-08T21:52:45;101587.3;;;22.3
48628;BMP280;34424;52.234;6.500;2023-07-08T21:57:45;101587.4;;;22.44
48628;BMP280;34424;52.234;6.500;2023-07-08T22:02:46;101585.6;;;22.42
48628;BMP280;34424;52.234;6.500;2023-07-08T22:07:46;101586.7;;;22.39
48628;BMP280;34424;52.234;6.500;2023-07-08T22:12:45;101590.9;;;22.53
48628;BMP280;34424;52.234;6.500;2023-07-08T22:17:45;101591.8;;;22.73
48628;BMP280;34424;52.234;6.500;2023-07-08T22:22:45;101592.3;;;22.85
48628;BMP280;34424;52.234;6.500;2023-07-08T22:27:45;101588.9;;;22.85
48628;BMP280;34424;52.234;6.500;2023-07-08T22:32:45;101601.6;;;22.77
48628;BMP280;34424;52.234;6.500;2023-07-08T22:37:45;101601.3;;;22.57
48628;BMP280;34424;52.234;6.500;2023-07-08T22:42:45;101604.8;;;22.39
48628;BMP280;34424;52.234;6.500;2023-07-08T22:47:45;101606.3;;;22.22
48628;BMP280;34424;52.234;6.500;2023-07-08T22:52:46;101611.2;;;22.1
48628;BMP280;34424;52.234;6.500;2023-07-08T22:57:45;101615.9;;;21.92
48628;BMP280;34424;52.234;6.500;2023-07-08T23:02:45;101623.6;;;21.72
48628;BMP280;34424;52.234;6.500;2023-07-08T23:07:45;101632.5;;;21.37
48628;BMP280;34424;52.234;6.500;2023-07-08T23:12:45;101648.3;;;21.07
48628;BMP280;34424;52.234;6.500;2023-07-08T23:17:45;101645.7;;;20.8
48628;BMP280;34424;52.234;6.500;2023-07-08T23:22:45;101654.8;;;20.61
48628;BMP280;34424;52.234;6.500;2023-07-08T23:27:45;101652.6;;;20.45
48628;BMP280;34424;52.234;6.500;2023-07-08T23:32:45;101655.7;;;20.32
48628;BMP280;34424;52.234;6.500;2023-07-08T23:37:45;101651.2;;;20.21
48628;BMP280;34424;52.234;6.500;2023-07-08T23:42:45;101657.3;;;20.17
48628;BMP280;34424;52.234;6.500;2023-07-08T23:47:45;101657.2;;;20.26
48628;BMP280;34424;52.234;6.500;2023-07-08T23:52:45;101650.2;;;20.2
48628;BMP280;34424;52.234;6.500;2023-07-08T23:57:45;101644.3;;;20.13
